Hlavní strana
METAR-TAF:

METAR-TAF

Letiště :

Stockholm, Švédsko

zeměpisná šířka: 59-21N, zeměpisná délka: 017-57E, výška: 14 m

Aktuální stav počasí

Zpráva byla vytvořena před 36 minutami, v 07:50 UTC
Východoseverovýchodní vítr 4 kt
Teplota 14°C
Vlhkost vzduchu 63%
Tlak 1016 hPa
Viditelnost 10 km a více
Žádná oblačnost pod 1500 m, nevyskytují se cumulonimby.

METAR: ESSB 260750Z 07004KT CAVOK 14/07 Q1016

Čas: 10:26 (08:26 UTC)

Předpověď počasí

Zpráva byla vytvořena před 2 hodinami a 56 minutami, v 05:30 UTC
Předpověď platná od 26 v 06 UTC do 26 v 15 UTC
Východoseverovýchodní vítr 8 kt
Viditelnost 10 km a více
Žádná oblačnost pod 1500 m, nevyskytují se cumulonimby.

TAF: ESSB 260530Z 2606/2615 07008KT CAVOK

Stav a předpovědi počasí z více než 4 000 letišť (zprávy METAR a TAF).

Červené a žluté tečky na mapě představují dostupné meteorologické stanice.

Když kurzor umístíte na tečku, zobrazí se název stanice.

Pak kliknutím zobrazíte stav a předpověď počasí.

Chcete-li změnit mapu, kliknutím na zelené tlačítko se znaménkem +mapu přiblížíte, kliknutím na zelené tlačítko se znaménkem – mapu oddálíte a kliknutím na zelené šipky přejdete na sousední mapy.


METAR-TAF: